Weather at St Luke Hospital Heliport

Public forecast

Using degrees Fahrenheit for public forecast. Weather courtesy of forecast.io.

Closest aviation weather report (METAR) to St Luke Hospital Heliport

Closest report is Cincinnati Municipal Airport Lunken Field, 2.6 nm (4.9 km) NE. Retrieved 2021/06/13 10:53 UTC (15 minutes ago):

KLUK 131053Z 00000KT 6SM BR FEW075 21/21 A2987 RMK AO2 SLP109 T02110206

Closest aviation forecast (TAF) to St Luke Hospital Heliport

Closest forecast is Cincinnati Municipal Airport Lunken Field, 2.6 nm (4.9 km) NE. Retrieved 2021/06/13 06:39 UTC (4 hours ago):

TAF KLUK 130536Z 1306/1406 00000KT P6SM VCTS BKN050CB FM130900 29003KT P6SM VCSH SCT050 TEMPO 1309/1312 5SM BR FM131400 32005KT P6SM VCTS SCT035CB FM131900 33007KT P6SM SCT040 FM140000 35008KT P6SM SCT250